Hartland, Minnesota
Current Conditions -  °F | °C
As of 12:14 PM on Thursday 23 Oct 2014 (Local Time) from KAEL Reporting Station
Overcast Overcast  
Wind Chill: 13°   Ceiling: 700
Heat Index: 13°   Visibility: 10mi
Dew Point: 13°   Wind: 6mph
Humidity: 100%   Direction: 270°W
Pressure: 30.03"   Gusts: NA
Location:  43.8°N, 93.49°W
Report Text: KAEL 231714Z AUTO 27005KT 10SM BKN007 OVC011 13/13 A3003 RMK AO2
Loading
Personal Weather Stations






























Interactive Weather Map
Tropical Storm Tracking
New forecast layout! Learn more

10-Day Weather Forecast

Advertisements
Track Severe Weather on mobile